createdAt,value
2022-12-25T00:01:13.983Z,85.95
2022-12-25T00:03:48.987Z,86.10
2022-12-25T00:06:18.983Z,86.11
2022-12-25T00:08:47.215Z,86.32
2022-12-25T00:11:19.680Z,86.09
2022-12-25T00:13:48.719Z,86.35
2022-12-25T00:16:22.412Z,86.40
2022-12-25T00:18:53.900Z,86.38
2022-12-25T00:21:22.582Z,86.54
2022-12-25T00:23:56.163Z,86.38
2022-12-25T00:26:26.337Z,86.57
2022-12-25T00:28:56.796Z,86.48
2022-12-25T00:31:26.431Z,86.37
2022-12-25T00:33:54.787Z,86.52
2022-12-25T00:36:23.723Z,86.39
2022-12-25T00:38:51.942Z,86.57
2022-12-25T00:41:43.233Z,86.52
2022-12-25T00:44:14.006Z,86.80
2022-12-25T00:46:43.581Z,86.89
2022-12-25T00:49:12.468Z,86.80
2022-12-25T00:51:40.598Z,86.86
2022-12-25T00:54:08.843Z,86.61
2022-12-25T00:56:36.938Z,86.99
2022-12-25T00:59:05.042Z,87.04
2022-12-25T01:01:33.713Z,87.11
2022-12-25T01:04:02.074Z,87.02
2022-12-25T01:06:30.591Z,87.20
2022-12-25T01:09:17.545Z,87.26
2022-12-25T01:11:46.179Z,87.17
2022-12-25T01:14:14.428Z,87.29
2022-12-25T01:16:42.745Z,87.28
2022-12-25T01:19:11.331Z,87.46
2022-12-25T01:21:39.797Z,87.40
2022-12-25T01:24:08.431Z,87.53
2022-12-25T01:26:36.629Z,87.59
2022-12-25T01:29:04.796Z,87.64
2022-12-25T01:31:32.959Z,87.60
2022-12-25T01:34:01.087Z,87.94
2022-12-25T01:36:29.238Z,87.79
2022-12-25T01:38:57.399Z,87.58
2022-12-25T01:41:25.668Z,87.78
2022-12-25T01:44:37.018Z,87.62
2022-12-25T01:47:07.065Z,87.65
2022-12-25T01:49:39.080Z,87.69
2022-12-25T01:52:18.808Z,87.49
2022-12-25T01:55:05.579Z,87.41
2022-12-25T01:57:37.960Z,87.54
2022-12-25T02:00:08.661Z,87.85
2022-12-25T02:02:38.421Z,87.86
2022-12-25T02:05:25.665Z,87.90
2022-12-25T02:07:55.417Z,87.63
2022-12-25T02:10:24.055Z,87.50
2022-12-25T02:12:53.144Z,87.78
2022-12-25T02:15:27.792Z,87.77
2022-12-25T02:18:16.049Z,87.63
2022-12-25T02:21:26.468Z,87.71
2022-12-25T02:24:03.596Z,87.93
2022-12-25T02:26:43.735Z,87.79
2022-12-25T02:29:52.183Z,87.78
2022-12-25T02:33:21.943Z,87.96
2022-12-25T02:35:56.273Z,87.93
2022-12-25T02:39:00.019Z,87.97
2022-12-25T02:41:33.151Z,87.70
2022-12-25T02:44:26.048Z,87.76
2022-12-25T02:47:13.127Z,87.90
2022-12-25T02:50:02.402Z,87.61
2022-12-25T02:52:49.960Z,87.30
2022-12-25T02:55:52.585Z,87.58
2022-12-25T02:58:42.940Z,87.63
2022-12-25T03:01:38.532Z,87.41
2022-12-25T03:04:32.419Z,87.92
2022-12-25T03:07:11.541Z,87.63
2022-12-25T03:10:04.978Z,87.63
2022-12-25T03:12:50.012Z,87.53
2022-12-25T03:15:39.302Z,87.80
2022-12-25T03:18:16.366Z,87.28
2022-12-25T03:21:03.149Z,87.79
2022-12-25T03:23:53.873Z,87.59
2022-12-25T03:26:41.076Z,87.58
2022-12-25T03:29:09.232Z,87.61
2022-12-25T03:31:50.754Z,87.55
2022-12-25T03:35:02.071Z,87.53
2022-12-25T03:38:49.616Z,87.40
2022-12-25T03:42:09.625Z,87.18
2022-12-25T03:45:35.869Z,86.87
2022-12-25T03:48:11.593Z,86.82
2022-12-25T03:51:11.904Z,87.34
2022-12-25T03:54:15.226Z,87.24
2022-12-25T03:57:03.010Z,87.06
2022-12-25T03:59:50.278Z,86.46
2022-12-25T04:02:37.431Z,86.79
2022-12-25T04:05:25.007Z,86.42
2022-12-25T04:08:11.631Z,86.58
2022-12-25T04:10:58.461Z,86.67
2022-12-25T04:13:45.399Z,86.82
2022-12-25T04:16:32.259Z,86.52
2022-12-25T04:19:19.018Z,86.51
2022-12-25T04:22:06.032Z,86.87
2022-12-25T04:24:52.712Z,86.69
2022-12-25T04:27:39.866Z,86.90
2022-12-25T04:30:28.033Z,86.99
2022-12-25T04:33:18.071Z,87.14
2022-12-25T04:36:43.735Z,86.95
2022-12-25T04:39:11.919Z,86.75
2022-12-25T04:41:40.022Z,86.68
2022-12-25T04:44:09.410Z,86.67
2022-12-25T04:46:37.580Z,86.29
2022-12-25T04:49:05.760Z,86.31
2022-12-25T04:51:34.054Z,86.31
2022-12-25T04:54:02.236Z,86.30
2022-12-25T04:56:30.445Z,85.88
2022-12-25T04:58:58.593Z,85.84
2022-12-25T05:01:27.138Z,85.72
2022-12-25T05:03:55.526Z,85.51
2022-12-25T05:06:23.743Z,85.48
2022-12-25T05:08:51.869Z,85.82
2022-12-25T05:11:20.080Z,85.98
2022-12-25T05:13:48.312Z,86.14
2022-12-25T05:16:20.261Z,86.18
2022-12-25T05:18:51.330Z,85.77
2022-12-25T05:21:19.757Z,85.88
2022-12-25T05:23:52.733Z,85.81
2022-12-25T05:26:25.739Z,85.61
2022-12-25T05:28:54.580Z,85.56
2022-12-25T05:31:22.994Z,85.26
2022-12-25T05:33:52.850Z,85.60
2022-12-25T05:36:21.258Z,85.25
2022-12-25T05:38:50.646Z,85.54
2022-12-25T05:41:18.939Z,85.43
2022-12-25T05:43:47.039Z,85.30
2022-12-25T05:46:15.220Z,85.63
2022-12-25T05:48:43.496Z,85.68
2022-12-25T05:51:14.055Z,85.06
2022-12-25T05:53:43.698Z,85.02
2022-12-25T05:56:11.905Z,85.17
2022-12-25T05:58:41.081Z,85.23
2022-12-25T06:01:22.126Z,85.03
2022-12-25T06:03:50.420Z,84.96
2022-12-25T06:06:18.981Z,85.14
2022-12-25T06:08:47.208Z,85.18
2022-12-25T06:11:16.032Z,85.12
2022-12-25T06:13:44.227Z,84.75
2022-12-25T06:16:12.769Z,84.82
2022-12-25T06:18:44.929Z,85.09
2022-12-25T06:21:15.065Z,85.41
2022-12-25T06:23:43.960Z,85.59
2022-12-25T06:26:17.729Z,85.35
2022-12-25T06:28:46.243Z,85.26
2022-12-25T06:31:21.876Z,85.28
2022-12-25T06:33:50.132Z,85.09
2022-12-25T06:36:29.543Z,85.25
2022-12-25T06:39:01.362Z,85.46
2022-12-25T06:41:30.965Z,85.16
2022-12-25T06:44:01.331Z,85.12
2022-12-25T06:46:30.889Z,85.41
2022-12-25T06:49:00.576Z,85.45
2022-12-25T06:51:31.230Z,85.31
2022-12-25T06:54:04.019Z,85.50
2022-12-25T06:56:33.653Z,85.64
2022-12-25T06:59:10.197Z,85.40
2022-12-25T07:01:48.654Z,85.69
2022-12-25T07:04:35.659Z,85.44
2022-12-25T07:07:09.073Z,85.59
2022-12-25T07:09:39.160Z,85.89
2022-12-25T07:12:13.691Z,86.11
2022-12-25T07:14:42.775Z,86.16
2022-12-25T07:17:11.717Z,86.23
2022-12-25T07:19:44.612Z,86.24
2022-12-25T07:22:14.899Z,86.10
2022-12-25T07:24:43.498Z,86.42
2022-12-25T07:27:11.832Z,86.50
2022-12-25T07:29:39.987Z,86.63
2022-12-25T07:32:08.674Z,86.52
2022-12-25T07:34:36.859Z,86.96
2022-12-25T07:37:04.954Z,86.79
2022-12-25T07:39:35.379Z,86.61
2022-12-25T07:42:04.131Z,86.72
2022-12-25T07:44:32.821Z,86.75
2022-12-25T07:47:00.951Z,86.93
2022-12-25T07:49:29.153Z,86.76
2022-12-25T07:51:57.446Z,86.92
2022-12-25T07:54:25.619Z,86.86
2022-12-25T07:56:54.151Z,87.08
2022-12-25T07:59:22.221Z,87.14
2022-12-25T08:01:50.720Z,87.24
2022-12-25T08:04:19.184Z,87.72
2022-12-25T08:06:47.416Z,87.29
2022-12-25T08:09:15.818Z,87.73
2022-12-25T08:11:47.619Z,87.44
2022-12-25T08:14:15.802Z,87.44
2022-12-25T08:16:44.705Z,87.38
2022-12-25T08:19:14.511Z,87.73
2022-12-25T08:21:42.711Z,87.50
2022-12-25T08:24:10.898Z,87.59
2022-12-25T08:26:39.037Z,87.49
2022-12-25T08:29:07.126Z,87.55
2022-12-25T08:31:38.259Z,87.57
2022-12-25T08:34:10.851Z,87.45
2022-12-25T08:36:38.983Z,87.62
2022-12-25T08:39:08.438Z,87.33
2022-12-25T08:41:36.618Z,87.51
2022-12-25T08:44:06.161Z,87.68
2022-12-25T08:46:34.429Z,87.52
2022-12-25T08:49:02.653Z,87.40
2022-12-25T08:51:30.790Z,87.26
2022-12-25T08:54:01.051Z,87.14
2022-12-25T08:56:29.352Z,87.24
2022-12-25T08:58:57.635Z,87.11
2022-12-25T09:01:26.042Z,87.01
2022-12-25T09:03:54.288Z,87.00
2022-12-25T09:06:22.473Z,86.93
2022-12-25T09:08:50.569Z,86.84
2022-12-25T09:11:20.105Z,86.76
2022-12-25T09:13:49.347Z,86.74
2022-12-25T09:16:21.625Z,86.59
2022-12-25T09:18:50.299Z,86.56
2022-12-25T09:21:19.439Z,86.45
2022-12-25T09:23:48.099Z,86.30
2022-12-25T09:26:19.053Z,86.18
2022-12-25T09:28:51.878Z,85.87
2022-12-25T09:31:22.933Z,85.91
2022-12-25T09:33:52.039Z,85.93
2022-12-25T09:36:23.436Z,85.73
2022-12-25T09:38:52.661Z,85.75
2022-12-25T09:41:51.974Z,85.74
2022-12-25T09:44:26.949Z,85.65
2022-12-25T09:47:04.533Z,85.62
2022-12-25T09:50:11.725Z,85.51
2022-12-25T09:52:58.642Z,85.55
2022-12-25T09:55:31.961Z,85.47
2022-12-25T09:58:10.028Z,85.25
2022-12-25T10:00:49.367Z,84.88
2022-12-25T10:03:41.905Z,84.78
2022-12-25T10:06:38.773Z,84.66
2022-12-25T10:09:30.533Z,84.61
2022-12-25T10:12:50.496Z,84.64
2022-12-25T10:15:46.951Z,84.49
2022-12-25T10:18:45.656Z,84.40
2022-12-25T10:21:18.380Z,84.41
2022-12-25T10:23:55.268Z,84.05
2022-12-25T10:26:27.056Z,84.01
2022-12-25T10:29:22.456Z,83.56
2022-12-25T10:31:54.889Z,83.38
2022-12-25T10:34:23.720Z,82.59
2022-12-25T10:36:52.543Z,82.31
2022-12-25T10:39:26.236Z,82.17
2022-12-25T10:42:28.390Z,81.75
2022-12-25T10:45:06.065Z,81.82
2022-12-25T10:47:44.160Z,81.15
2022-12-25T10:50:17.654Z,80.37
2022-12-25T10:52:59.498Z,79.49
2022-12-25T10:55:29.549Z,79.22
2022-12-25T10:57:59.008Z,78.22
2022-12-25T11:00:32.859Z,78.08
2022-12-25T11:03:01.284Z,77.27
2022-12-25T11:05:33.171Z,77.21
2022-12-25T11:08:03.147Z,76.69
2022-12-25T11:10:42.733Z,75.97
2022-12-25T11:13:26.976Z,75.36
2022-12-25T11:16:14.242Z,74.81
2022-12-25T11:18:48.831Z,74.75
2022-12-25T11:21:26.944Z,74.09
2022-12-25T11:24:04.634Z,72.83
2022-12-25T11:26:54.014Z,70.16
2022-12-25T11:29:48.941Z,69.83
2022-12-25T11:32:43.619Z,68.58
2022-12-25T11:35:18.052Z,69.04
2022-12-25T11:37:52.135Z,69.07
2022-12-25T11:40:52.407Z,68.95
2022-12-25T11:43:30.781Z,68.97
2022-12-25T11:46:13.535Z,69.00
2022-12-25T11:49:06.710Z,67.94
2022-12-25T11:51:39.587Z,67.92
2022-12-25T11:54:33.639Z,68.26
2022-12-25T11:57:06.016Z,68.30
2022-12-25T11:59:46.662Z,67.98
2022-12-25T12:02:32.886Z,67.92
2022-12-25T12:05:23.398Z,67.95
2022-12-25T12:08:04.993Z,66.42
2022-12-25T12:11:20.995Z,66.82
2022-12-25T12:14:49.719Z,67.23
2022-12-25T12:17:18.777Z,67.64
2022-12-25T12:19:46.967Z,67.56
2022-12-25T12:32:37.024Z,70.70
2022-12-25T12:35:36.992Z,70.78
2022-12-25T12:38:17.161Z,71.23
2022-12-25T12:41:00.313Z,71.41
2022-12-25T12:43:52.516Z,71.89
2022-12-25T12:46:31.690Z,72.18
2022-12-25T12:49:28.487Z,72.63
2022-12-25T12:52:07.374Z,72.67
2022-12-25T12:54:56.846Z,72.73
2022-12-25T12:57:32.868Z,72.99
2022-12-25T13:00:08.433Z,73.13
2022-12-25T13:03:21.125Z,73.19
2022-12-25T13:06:04.838Z,73.61
2022-12-25T13:08:50.696Z,73.73
2022-12-25T13:11:24.679Z,73.99
2022-12-25T13:13:56.982Z,74.16
2022-12-25T13:16:32.233Z,74.08
2022-12-25T13:19:06.012Z,74.31
2022-12-25T13:21:35.346Z,74.54
2022-12-25T13:24:09.082Z,74.92
2022-12-25T13:26:39.257Z,75.12
2022-12-25T13:29:18.768Z,75.19
2022-12-25T13:31:48.097Z,75.53
2022-12-25T13:34:37.505Z,75.61
2022-12-25T13:37:19.630Z,75.66
2022-12-25T13:39:55.644Z,75.71
2022-12-25T13:42:30.944Z,75.70
2022-12-25T13:45:07.196Z,76.05
2022-12-25T13:47:39.082Z,76.27
2022-12-25T13:50:28.418Z,76.10
2022-12-25T13:53:10.005Z,76.07
2022-12-25T13:55:38.349Z,76.30
2022-12-25T13:58:14.780Z,76.15
2022-12-25T14:00:49.522Z,76.41
2022-12-25T14:03:30.232Z,76.57
2022-12-25T14:06:01.654Z,76.61
2022-12-25T14:08:33.817Z,76.76
2022-12-25T14:11:05.871Z,76.87
2022-12-25T14:13:46.266Z,76.92
2022-12-25T14:16:21.460Z,76.94
2022-12-25T14:19:02.437Z,76.94
2022-12-25T14:21:35.111Z,77.08
2022-12-25T14:24:03.528Z,77.41
2022-12-25T14:26:33.897Z,77.51
2022-12-25T14:29:05.110Z,77.60
2022-12-25T14:31:34.453Z,77.75
2022-12-25T14:34:07.975Z,77.97
2022-12-25T14:36:36.540Z,78.10
2022-12-25T14:39:22.561Z,78.16
2022-12-25T14:41:54.592Z,78.29
2022-12-25T14:44:31.648Z,78.41
2022-12-25T14:47:26.588Z,78.50
2022-12-25T14:49:54.881Z,78.67
2022-12-25T14:52:31.534Z,78.84
2022-12-25T14:55:17.582Z,78.89
2022-12-25T14:57:50.313Z,79.20
2022-12-25T15:00:31.826Z,79.33
2022-12-25T15:03:00.774Z,79.39
2022-12-25T15:05:38.893Z,79.45
2022-12-25T15:08:10.344Z,79.56
2022-12-25T15:13:30.791Z,79.47
2022-12-25T15:16:13.114Z,79.65
2022-12-25T15:18:45.339Z,79.83
2022-12-25T15:21:31.575Z,80.06
2022-12-25T15:24:00.937Z,80.03
2022-12-25T15:26:32.007Z,80.12
2022-12-25T15:29:00.149Z,80.24
2022-12-25T15:31:31.648Z,80.35
2022-12-25T15:34:05.421Z,80.42
2022-12-25T15:36:34.238Z,80.43
2022-12-25T15:39:02.403Z,80.59
2022-12-25T15:41:55.091Z,80.48
2022-12-25T15:44:24.536Z,80.11
2022-12-25T15:46:52.786Z,80.07
2022-12-25T15:49:21.169Z,80.11
2022-12-25T15:51:49.348Z,80.02
2022-12-25T15:54:17.425Z,80.04
2022-12-25T15:56:52.289Z,80.01
2022-12-25T15:59:21.472Z,79.88
2022-12-25T16:01:53.611Z,79.89
2022-12-25T16:04:23.788Z,79.85
2022-12-25T16:06:52.869Z,79.79
2022-12-25T16:09:22.263Z,79.95
2022-12-25T16:11:50.790Z,79.74
2022-12-25T16:14:19.734Z,79.88
2022-12-25T16:16:47.854Z,79.61
2022-12-25T16:19:15.944Z,79.74
2022-12-25T16:21:46.273Z,79.68
2022-12-25T16:24:15.439Z,79.81
2022-12-25T16:26:43.594Z,79.82
2022-12-25T16:29:11.886Z,80.00
2022-12-25T16:31:40.219Z,80.15
2022-12-25T16:34:09.037Z,80.11
2022-12-25T16:36:39.172Z,79.85
2022-12-25T16:39:08.461Z,79.74
2022-12-25T16:41:36.568Z,79.56
2022-12-25T16:44:10.286Z,79.64
2022-12-25T16:46:39.887Z,80.00
2022-12-25T16:49:08.785Z,79.80
2022-12-25T16:51:37.070Z,79.74
2022-12-25T16:54:05.320Z,79.93
2022-12-25T16:56:33.473Z,80.04
2022-12-25T16:59:01.627Z,79.92
2022-12-25T17:01:29.927Z,79.98
2022-12-25T17:04:02.740Z,79.77
2022-12-25T17:06:31.116Z,80.21
2022-12-25T17:09:02.337Z,80.17
2022-12-25T17:11:32.059Z,79.84
2022-12-25T17:14:03.822Z,79.71
2022-12-25T17:16:35.749Z,79.68
2022-12-25T17:19:18.351Z,79.80
2022-12-25T17:21:47.278Z,79.68
2022-12-25T17:24:16.229Z,79.95
2022-12-25T17:26:44.631Z,80.03
2022-12-25T17:29:17.247Z,79.68
2022-12-25T17:31:50.132Z,79.55
2022-12-25T17:34:18.864Z,79.55
2022-12-25T17:36:47.866Z,79.76
2022-12-25T17:39:16.118Z,79.93
2022-12-25T17:41:44.349Z,79.51
2022-12-25T17:44:12.519Z,79.84
2022-12-25T17:46:41.546Z,79.54
2022-12-25T17:49:17.681Z,79.60
2022-12-25T17:51:46.450Z,79.47
2022-12-25T17:54:14.959Z,79.48
2022-12-25T17:56:43.179Z,79.80
2022-12-25T17:59:18.222Z,79.78
2022-12-25T18:01:48.186Z,79.55
2022-12-25T18:04:16.700Z,79.73
2022-12-25T18:06:44.955Z,79.71
2022-12-25T18:09:13.648Z,79.61
2022-12-25T18:11:43.649Z,79.77
2022-12-25T18:14:15.620Z,79.82
2022-12-25T18:16:45.537Z,79.54
2022-12-25T18:19:15.397Z,79.62
2022-12-25T18:21:43.525Z,79.75
2022-12-25T18:24:12.217Z,79.75
2022-12-25T18:26:40.349Z,79.68
2022-12-25T18:29:08.499Z,79.67
2022-12-25T18:31:36.800Z,79.68
2022-12-25T18:34:04.994Z,79.92
2022-12-25T18:36:33.379Z,79.82
2022-12-25T18:39:01.748Z,79.93
2022-12-25T18:41:30.678Z,79.85
2022-12-25T18:43:59.840Z,79.93
2022-12-25T18:46:28.124Z,79.90
2022-12-25T18:48:57.448Z,79.72
2022-12-25T18:51:31.313Z,80.11
2022-12-25T18:54:03.111Z,79.86
2022-12-25T18:56:31.240Z,79.86
2022-12-25T18:59:00.637Z,80.10
2022-12-25T19:01:29.008Z,80.03
2022-12-25T19:04:04.538Z,80.26
2022-12-25T19:06:34.027Z,80.25
2022-12-25T19:09:09.164Z,80.34
2022-12-25T19:11:46.104Z,80.38
2022-12-25T19:14:15.220Z,80.25
2022-12-25T19:16:43.761Z,80.34
2022-12-25T19:19:11.890Z,80.44
2022-12-25T19:21:40.691Z,80.41
2022-12-25T19:24:09.015Z,80.22
2022-12-25T19:26:37.738Z,80.26
2022-12-25T19:29:05.924Z,80.55
2022-12-25T19:31:34.085Z,80.52
2022-12-25T19:34:02.229Z,80.54
2022-12-25T19:36:30.542Z,80.56
2022-12-25T19:38:58.672Z,80.69
2022-12-25T19:41:26.928Z,80.62
2022-12-25T19:43:55.074Z,80.70
2022-12-25T19:46:30.663Z,80.80
2022-12-25T19:49:04.241Z,80.96
2022-12-25T19:51:38.522Z,80.88
2022-12-25T19:54:06.805Z,80.98
2022-12-25T19:56:35.233Z,80.93
2022-12-25T19:59:03.568Z,81.00
2022-12-25T20:01:31.862Z,81.16
2022-12-25T20:04:00.265Z,81.03
2022-12-25T20:06:33.748Z,81.21
2022-12-25T20:09:06.906Z,81.24
2022-12-25T20:11:36.601Z,81.20
2022-12-25T20:14:07.047Z,81.42
2022-12-25T20:16:39.424Z,81.24
2022-12-25T20:19:08.135Z,81.36
2022-12-25T20:21:36.259Z,81.36
2022-12-25T20:24:06.321Z,81.48
2022-12-25T20:26:34.874Z,81.55
2022-12-25T20:29:04.228Z,81.64
2022-12-25T20:31:35.072Z,81.68
2022-12-25T20:34:10.904Z,81.66
2022-12-25T20:36:39.136Z,81.67
2022-12-25T20:39:10.038Z,81.70
2022-12-25T20:41:39.895Z,81.72
2022-12-25T20:44:10.047Z,81.63
2022-12-25T20:46:38.792Z,81.51
2022-12-25T20:49:07.144Z,81.76
2022-12-25T20:51:35.846Z,81.63
2022-12-25T20:54:10.196Z,81.42
2022-12-25T20:56:38.772Z,81.81
2022-12-25T20:59:06.951Z,81.75
2022-12-25T21:01:35.156Z,81.60
2022-12-25T21:04:03.540Z,81.62
2022-12-25T21:06:31.831Z,81.72
2022-12-25T21:09:00.195Z,81.65
2022-12-25T21:11:30.490Z,81.71
2022-12-25T21:13:58.729Z,81.44
2022-12-25T21:16:27.207Z,81.71
2022-12-25T21:18:55.465Z,81.81
2022-12-25T21:21:23.771Z,81.87
2022-12-25T21:23:54.553Z,81.77
2022-12-25T21:26:28.688Z,81.74
2022-12-25T21:29:00.529Z,81.69
2022-12-25T21:31:29.841Z,81.84
2022-12-25T21:33:58.067Z,82.08
2022-12-25T21:36:28.338Z,82.07
2022-12-25T21:38:59.789Z,81.96
2022-12-25T21:41:29.718Z,81.93
2022-12-25T21:43:58.526Z,81.98
2022-12-25T21:46:28.154Z,82.00
2022-12-25T21:48:57.280Z,81.83
2022-12-25T21:51:50.365Z,82.00
2022-12-25T21:54:21.753Z,82.05
2022-12-25T21:56:50.283Z,81.98
2022-12-25T21:59:22.604Z,82.06
2022-12-25T22:01:52.369Z,82.03
2022-12-25T22:04:22.980Z,82.04
2022-12-25T22:07:10.343Z,82.11
2022-12-25T22:09:38.642Z,82.45
2022-12-25T22:12:31.937Z,82.21
2022-12-25T22:15:06.802Z,82.41
2022-12-25T22:17:58.204Z,82.21
2022-12-25T22:20:34.864Z,82.34
2022-12-25T22:23:03.791Z,82.27
2022-12-25T22:25:32.080Z,82.32
2022-12-25T22:28:00.500Z,82.17
2022-12-25T22:30:29.491Z,82.33
2022-12-25T22:32:58.112Z,82.32
2022-12-25T22:35:26.214Z,82.22
2022-12-25T22:37:54.829Z,82.48
2022-12-25T22:40:22.986Z,82.24
2022-12-25T22:42:55.048Z,82.41
2022-12-25T22:45:24.592Z,82.15
2022-12-25T22:47:52.739Z,82.17
2022-12-25T22:50:20.921Z,82.34
2022-12-25T22:52:49.068Z,82.67
2022-12-25T22:55:18.854Z,82.48
2022-12-25T22:57:47.138Z,82.42
2022-12-25T23:00:15.410Z,82.50
2022-12-25T23:02:43.794Z,82.66
2022-12-25T23:05:12.133Z,82.44
2022-12-25T23:07:41.947Z,82.67
2022-12-25T23:10:11.442Z,82.56
2022-12-25T23:12:58.247Z,82.68
2022-12-25T23:15:27.706Z,82.36
2022-12-25T23:18:14.444Z,82.42
2022-12-25T23:21:01.039Z,82.49
2022-12-25T23:23:48.037Z,82.51
2022-12-25T23:26:20.130Z,82.47
2022-12-25T23:29:06.785Z,82.75
2022-12-25T23:31:40.824Z,82.49
2022-12-25T23:34:10.390Z,82.57
2022-12-25T23:36:38.601Z,82.48
2022-12-25T23:39:09.929Z,82.66
2022-12-25T23:41:40.635Z,82.54
2022-12-25T23:44:11.118Z,82.89
2022-12-25T23:46:41.073Z,82.56
2022-12-25T23:49:23.479Z,82.62
2022-12-25T23:51:52.764Z,82.85
2022-12-25T23:54:24.942Z,82.81
2022-12-25T23:56:53.941Z,82.64
2022-12-25T23:59:22.201Z,82.51
